Terminal Aerodrome Forecast
Issued by NWS Paducah, KY

Home | Current Version | Previous Version | Text Only | Print | Product List | Glossary Off
Versions: 1 2 3 4 5 6 7 8 9 10 11 12 13 14 15 16 17 18 19 20 21 22 23 24 25

549
FTUS43 KPAH 240403 AAC
TAFPAH
TAF AMD
KPAH 240403Z 2404/2424 00000KT 1SM BR SCT002 BKN100
      TEMPO 2404/2407 1/4SM FG VV002
     FM240700 35005KT 5SM BR BKN025
     FM240900 35006KT 3SM BR OVC008
     FM241700 34010KT P6SM VCSH OVC012
     FM242000 34011KT P6SM VCSH BKN020
     FM242200 34010KT P6SM SCT020 BKN035=

USA.gov is the U.S. government's official web portal to all federal, state and local government web resources and services.